sensor_id;sensor_type;location;lat;lon;timestamp;temperature;humidity
65046;DHT22;54657;52.022;5.534;2023-04-15T00:00:35;10.30;58.50
65046;DHT22;54657;52.022;5.534;2023-04-15T00:03:01;10.40;58.60
65046;DHT22;54657;52.022;5.534;2023-04-15T00:05:29;10.30;59.50
65046;DHT22;54657;52.022;5.534;2023-04-15T00:07:55;10.20;58.90
65046;DHT22;54657;52.022;5.534;2023-04-15T00:10:20;10.20;59.00
65046;DHT22;54657;52.022;5.534;2023-04-15T00:12:46;10.20;59.30
65046;DHT22;54657;52.022;5.534;2023-04-15T00:15:11;10.10;59.50
65046;DHT22;54657;52.022;5.534;2023-04-15T00:17:37;10.00;59.70
65046;DHT22;54657;52.022;5.534;2023-04-15T00:20:04;10.00;59.80
65046;DHT22;54657;52.022;5.534;2023-04-15T00:22:31;10.00;59.90
65046;DHT22;54657;52.022;5.534;2023-04-15T00:24:57;9.90;60.00
65046;DHT22;54657;52.022;5.534;2023-04-15T00:27:22;9.90;60.10
65046;DHT22;54657;52.022;5.534;2023-04-15T00:29:48;9.90;60.20
65046;DHT22;54657;52.022;5.534;2023-04-15T00:32:13;9.80;60.10
65046;DHT22;54657;52.022;5.534;2023-04-15T00:34:39;9.90;60.20
65046;DHT22;54657;52.022;5.534;2023-04-15T00:37:05;9.80;60.30
65046;DHT22;54657;52.022;5.534;2023-04-15T00:39:30;9.80;60.40
65046;DHT22;54657;52.022;5.534;2023-04-15T00:41:56;9.70;60.40
65046;DHT22;54657;52.022;5.534;2023-04-15T00:44:22;9.70;60.60
65046;DHT22;54657;52.022;5.534;2023-04-15T00:46:50;9.60;60.50
65046;DHT22;54657;52.022;5.534;2023-04-15T00:49:15;9.60;60.60
65046;DHT22;54657;52.022;5.534;2023-04-15T00:51:42;9.60;60.50
65046;DHT22;54657;52.022;5.534;2023-04-15T00:54:09;9.60;60.60
65046;DHT22;54657;52.022;5.534;2023-04-15T00:56:35;9.60;60.50
65046;DHT22;54657;52.022;5.534;2023-04-15T00:59:03;9.60;60.60
65046;DHT22;54657;52.022;5.534;2023-04-15T01:01:29;9.60;60.60
65046;DHT22;54657;52.022;5.534;2023-04-15T01:03:56;9.50;60.70
65046;DHT22;54657;52.022;5.534;2023-04-15T01:06:24;9.50;60.80
65046;DHT22;54657;52.022;5.534;2023-04-15T01:08:52;9.50;60.90
65046;DHT22;54657;52.022;5.534;2023-04-15T01:11:18;9.50;60.90
65046;DHT22;54657;52.022;5.534;2023-04-15T01:13:45;9.50;60.90
65046;DHT22;54657;52.022;5.534;2023-04-15T01:16:11;9.50;60.90
65046;DHT22;54657;52.022;5.534;2023-04-15T01:18:37;9.40;61.00
65046;DHT22;54657;52.022;5.534;2023-04-15T01:21:04;9.40;61.10
65046;DHT22;54657;52.022;5.534;2023-04-15T01:23:31;9.40;61.20
65046;DHT22;54657;52.022;5.534;2023-04-15T01:25:58;9.40;61.20
65046;DHT22;54657;52.022;5.534;2023-04-15T01:28:24;9.40;61.20
65046;DHT22;54657;52.022;5.534;2023-04-15T01:30:50;9.40;61.20
65046;DHT22;54657;52.022;5.534;2023-04-15T01:33:15;9.40;61.40
65046;DHT22;54657;52.022;5.534;2023-04-15T01:35:41;9.30;61.30
65046;DHT22;54657;52.022;5.534;2023-04-15T01:38:09;9.30;61.30
65046;DHT22;54657;52.022;5.534;2023-04-15T01:40:35;9.30;61.40
65046;DHT22;54657;52.022;5.534;2023-04-15T01:43:01;9.30;61.60
65046;DHT22;54657;52.022;5.534;2023-04-15T01:45:28;9.30;61.40
65046;DHT22;54657;52.022;5.534;2023-04-15T01:47:54;9.40;61.10
65046;DHT22;54657;52.022;5.534;2023-04-15T01:50:20;9.40;61.20
65046;DHT22;54657;52.022;5.534;2023-04-15T01:52:46;9.40;61.10
65046;DHT22;54657;52.022;5.534;2023-04-15T01:55:12;9.40;61.10
65046;DHT22;54657;52.022;5.534;2023-04-15T01:57:39;9.40;61.20
65046;DHT22;54657;52.022;5.534;2023-04-15T02:00:05;9.40;61.20
65046;DHT22;54657;52.022;5.534;2023-04-15T02:02:32;9.40;61.20
65046;DHT22;54657;52.022;5.534;2023-04-15T02:04:58;9.50;61.10
65046;DHT22;54657;52.022;5.534;2023-04-15T02:07:23;9.50;61.00
65046;DHT22;54657;52.022;5.534;2023-04-15T02:09:49;9.50;60.80
65046;DHT22;54657;52.022;5.534;2023-04-15T02:12:14;9.50;61.00
65046;DHT22;54657;52.022;5.534;2023-04-15T02:14:40;9.50;61.00
65046;DHT22;54657;52.022;5.534;2023-04-15T02:17:05;9.40;61.20
65046;DHT22;54657;52.022;5.534;2023-04-15T02:19:34;9.40;61.30
65046;DHT22;54657;52.022;5.534;2023-04-15T02:22:00;9.40;61.40
65046;DHT22;54657;52.022;5.534;2023-04-15T02:24:27;9.30;61.50
65046;DHT22;54657;52.022;5.534;2023-04-15T02:26:52;9.30;61.60
65046;DHT22;54657;52.022;5.534;2023-04-15T02:29:18;9.20;61.70
65046;DHT22;54657;52.022;5.534;2023-04-15T02:31:43;9.20;61.70
65046;DHT22;54657;52.022;5.534;2023-04-15T02:34:10;9.20;61.60
65046;DHT22;54657;52.022;5.534;2023-04-15T02:36:35;9.20;61.50
65046;DHT22;54657;52.022;5.534;2023-04-15T02:39:02;9.30;61.60
65046;DHT22;54657;52.022;5.534;2023-04-15T02:41:28;9.20;61.50
65046;DHT22;54657;52.022;5.534;2023-04-15T02:43:54;9.20;61.50
65046;DHT22;54657;52.022;5.534;2023-04-15T02:46:21;9.30;61.60
65046;DHT22;54657;52.022;5.534;2023-04-15T02:48:47;9.30;61.70
65046;DHT22;54657;52.022;5.534;2023-04-15T02:51:15;9.30;61.50
65046;DHT22;54657;52.022;5.534;2023-04-15T02:53:41;9.40;61.90
65046;DHT22;54657;52.022;5.534;2023-04-15T02:56:07;9.40;61.60
65046;DHT22;54657;52.022;5.534;2023-04-15T02:58:33;9.40;61.60
65046;DHT22;54657;52.022;5.534;2023-04-15T03:00:59;9.40;61.90
65046;DHT22;54657;52.022;5.534;2023-04-15T03:03:25;9.40;61.60
65046;DHT22;54657;52.022;5.534;2023-04-15T03:05:52;9.40;61.70
65046;DHT22;54657;52.022;5.534;2023-04-15T03:08:17;9.40;61.90
65046;DHT22;54657;52.022;5.534;2023-04-15T03:10:43;9.40;61.50
65046;DHT22;54657;52.022;5.534;2023-04-15T03:13:08;9.30;62.40
65046;DHT22;54657;52.022;5.534;2023-04-15T03:15:34;9.30;62.90
65046;DHT22;54657;52.022;5.534;2023-04-15T03:18:00;9.30;62.20
65046;DHT22;54657;52.022;5.534;2023-04-15T03:20:26;9.30;62.10
65046;DHT22;54657;52.022;5.534;2023-04-15T03:22:51;9.20;62.40
65046;DHT22;54657;52.022;5.534;2023-04-15T03:25:17;9.30;62.40
65046;DHT22;54657;52.022;5.534;2023-04-15T03:27:42;9.20;62.80
65046;DHT22;54657;52.022;5.534;2023-04-15T03:30:08;9.20;62.30
65046;DHT22;54657;52.022;5.534;2023-04-15T03:32:34;9.20;62.60
65046;DHT22;54657;52.022;5.534;2023-04-15T03:35:00;9.20;62.90
65046;DHT22;54657;52.022;5.534;2023-04-15T03:37:25;9.20;62.40
65046;DHT22;54657;52.022;5.534;2023-04-15T03:39:51;9.20;62.50
65046;DHT22;54657;52.022;5.534;2023-04-15T03:42:17;9.20;62.80
65046;DHT22;54657;52.022;5.534;2023-04-15T03:44:42;9.20;62.90
65046;DHT22;54657;52.022;5.534;2023-04-15T03:47:08;9.20;62.70
65046;DHT22;54657;52.022;5.534;2023-04-15T03:49:34;9.10;62.70
65046;DHT22;54657;52.022;5.534;2023-04-15T03:51:59;9.10;62.80
65046;DHT22;54657;52.022;5.534;2023-04-15T03:54:25;9.00;62.70
65046;DHT22;54657;52.022;5.534;2023-04-15T03:56:51;8.90;62.80
65046;DHT22;54657;52.022;5.534;2023-04-15T03:59:16;8.90;62.90
65046;DHT22;54657;52.022;5.534;2023-04-15T04:01:42;8.80;63.10
65046;DHT22;54657;52.022;5.534;2023-04-15T04:04:07;8.80;63.40
65046;DHT22;54657;52.022;5.534;2023-04-15T04:06:33;8.80;64.20
65046;DHT22;54657;52.022;5.534;2023-04-15T04:08:59;8.80;63.50
65046;DHT22;54657;52.022;5.534;2023-04-15T04:11:25;8.80;63.60
65046;DHT22;54657;52.022;5.534;2023-04-15T04:13:52;8.80;64.10
65046;DHT22;54657;52.022;5.534;2023-04-15T04:16:18;8.80;64.20
65046;DHT22;54657;52.022;5.534;2023-04-15T04:18:44;8.80;64.10
65046;DHT22;54657;52.022;5.534;2023-04-15T04:21:09;8.80;64.30
65046;DHT22;54657;52.022;5.534;2023-04-15T04:23:35;8.80;64.30
65046;DHT22;54657;52.022;5.534;2023-04-15T04:26:00;8.90;64.20
65046;DHT22;54657;52.022;5.534;2023-04-15T04:28:26;8.90;63.70
65046;DHT22;54657;52.022;5.534;2023-04-15T04:30:52;9.00;64.10
65046;DHT22;54657;52.022;5.534;2023-04-15T04:33:19;9.00;63.90
65046;DHT22;54657;52.022;5.534;2023-04-15T04:35:44;9.00;63.90
65046;DHT22;54657;52.022;5.534;2023-04-15T04:38:10;8.90;63.80
65046;DHT22;54657;52.022;5.534;2023-04-15T04:40:36;8.90;63.90
65046;DHT22;54657;52.022;5.534;2023-04-15T04:43:01;8.80;63.80
65046;DHT22;54657;52.022;5.534;2023-04-15T04:45:27;8.80;64.10
65046;DHT22;54657;52.022;5.534;2023-04-15T04:47:52;8.80;64.30
65046;DHT22;54657;52.022;5.534;2023-04-15T04:50:18;8.80;64.70
65046;DHT22;54657;52.022;5.534;2023-04-15T04:52:44;8.80;64.40
65046;DHT22;54657;52.022;5.534;2023-04-15T04:55:09;8.80;64.10
65046;DHT22;54657;52.022;5.534;2023-04-15T04:57:35;8.80;64.10
65046;DHT22;54657;52.022;5.534;2023-04-15T05:00:01;8.70;64.20
65046;DHT22;54657;52.022;5.534;2023-04-15T05:02:29;8.60;64.20
65046;DHT22;54657;52.022;5.534;2023-04-15T05:04:55;8.60;64.30
65046;DHT22;54657;52.022;5.534;2023-04-15T05:07:21;8.50;64.30
65046;DHT22;54657;52.022;5.534;2023-04-15T05:09:46;8.50;64.40
65046;DHT22;54657;52.022;5.534;2023-04-15T05:12:12;8.40;64.40
65046;DHT22;54657;52.022;5.534;2023-04-15T05:14:40;8.40;64.30
65046;DHT22;54657;52.022;5.534;2023-04-15T05:17:07;8.50;64.20
65046;DHT22;54657;52.022;5.534;2023-04-15T05:19:32;8.40;64.20
65046;DHT22;54657;52.022;5.534;2023-04-15T05:21:58;8.40;64.50
65046;DHT22;54657;52.022;5.534;2023-04-15T05:24:24;8.40;64.60
65046;DHT22;54657;52.022;5.534;2023-04-15T05:26:50;8.50;64.80
65046;DHT22;54657;52.022;5.534;2023-04-15T05:29:15;8.50;65.30
65046;DHT22;54657;52.022;5.534;2023-04-15T05:31:41;8.50;64.80
65046;DHT22;54657;52.022;5.534;2023-04-15T05:34:07;8.60;65.10
65046;DHT22;54657;52.022;5.534;2023-04-15T05:36:33;8.60;65.30
65046;DHT22;54657;52.022;5.534;2023-04-15T05:38:58;8.60;65.20
65046;DHT22;54657;52.022;5.534;2023-04-15T05:41:24;8.70;65.10
65046;DHT22;54657;52.022;5.534;2023-04-15T05:43:50;8.70;65.50
65046;DHT22;54657;52.022;5.534;2023-04-15T05:46:16;8.70;66.10
65046;DHT22;54657;52.022;5.534;2023-04-15T05:48:41;8.80;65.60
65046;DHT22;54657;52.022;5.534;2023-04-15T05:51:07;8.80;65.60
65046;DHT22;54657;52.022;5.534;2023-04-15T05:53:32;8.90;65.70
65046;DHT22;54657;52.022;5.534;2023-04-15T05:55:58;8.80;65.20
65046;DHT22;54657;52.022;5.534;2023-04-15T05:58:23;8.90;66.10
65046;DHT22;54657;52.022;5.534;2023-04-15T06:00:49;8.90;65.40
65046;DHT22;54657;52.022;5.534;2023-04-15T06:03:15;8.90;65.40
65046;DHT22;54657;52.022;5.534;2023-04-15T06:05:41;8.90;65.70
65046;DHT22;54657;52.022;5.534;2023-04-15T06:08:07;8.80;66.20
65046;DHT22;54657;52.022;5.534;2023-04-15T06:10:34;8.80;66.30
65046;DHT22;54657;52.022;5.534;2023-04-15T06:13:01;8.90;66.40
65046;DHT22;54657;52.022;5.534;2023-04-15T06:15:28;9.00;65.60
65046;DHT22;54657;52.022;5.534;2023-04-15T06:17:54;9.00;66.10
65046;DHT22;54657;52.022;5.534;2023-04-15T06:20:19;9.00;66.50
65046;DHT22;54657;52.022;5.534;2023-04-15T06:22:45;9.10;67.60
65046;DHT22;54657;52.022;5.534;2023-04-15T06:25:10;9.20;67.00
65046;DHT22;54657;52.022;5.534;2023-04-15T06:27:36;9.20;66.70
65046;DHT22;54657;52.022;5.534;2023-04-15T06:30:02;9.30;66.80
65046;DHT22;54657;52.022;5.534;2023-04-15T06:32:28;9.40;66.80
65046;DHT22;54657;52.022;5.534;2023-04-15T06:34:54;9.50;66.70
65046;DHT22;54657;52.022;5.534;2023-04-15T06:37:19;9.60;66.90
65046;DHT22;54657;52.022;5.534;2023-04-15T06:39:45;9.60;66.60
65046;DHT22;54657;52.022;5.534;2023-04-15T06:42:11;9.70;66.70
65046;DHT22;54657;52.022;5.534;2023-04-15T06:44:37;9.70;66.60
65046;DHT22;54657;52.022;5.534;2023-04-15T06:47:02;9.70;66.90
65046;DHT22;54657;52.022;5.534;2023-04-15T06:49:28;9.80;66.90
65046;DHT22;54657;52.022;5.534;2023-04-15T06:51:54;9.90;67.10
65046;DHT22;54657;52.022;5.534;2023-04-15T06:54:20;9.90;66.90
65046;DHT22;54657;52.022;5.534;2023-04-15T06:56:45;10.00;67.30
65046;DHT22;54657;52.022;5.534;2023-04-15T06:59:12;10.00;67.20
65046;DHT22;54657;52.022;5.534;2023-04-15T07:01:39;10.10;67.00
65046;DHT22;54657;52.022;5.534;2023-04-15T07:04:05;10.20;66.70
65046;DHT22;54657;52.022;5.534;2023-04-15T07:06:31;10.30;66.90
65046;DHT22;54657;52.022;5.534;2023-04-15T07:08:57;10.40;66.50
65046;DHT22;54657;52.022;5.534;2023-04-15T07:11:24;10.30;66.90
65046;DHT22;54657;52.022;5.534;2023-04-15T07:13:50;10.40;66.60
65046;DHT22;54657;52.022;5.534;2023-04-15T07:16:15;10.30;67.00
65046;DHT22;54657;52.022;5.534;2023-04-15T07:18:41;10.40;66.80
65046;DHT22;54657;52.022;5.534;2023-04-15T07:21:08;10.50;67.10
65046;DHT22;54657;52.022;5.534;2023-04-15T07:23:33;10.50;66.80
65046;DHT22;54657;52.022;5.534;2023-04-15T07:25:59;10.50;67.40
65046;DHT22;54657;52.022;5.534;2023-04-15T07:28:25;10.60;66.80
65046;DHT22;54657;52.022;5.534;2023-04-15T07:30:51;10.70;66.70
65046;DHT22;54657;52.022;5.534;2023-04-15T07:33:17;10.70;67.00
65046;DHT22;54657;52.022;5.534;2023-04-15T07:35:42;10.80;66.90
65046;DHT22;54657;52.022;5.534;2023-04-15T07:38:09;11.00;66.00
65046;DHT22;54657;52.022;5.534;2023-04-15T07:40:37;11.00;65.70
65046;DHT22;54657;52.022;5.534;2023-04-15T07:43:03;11.10;65.50
65046;DHT22;54657;52.022;5.534;2023-04-15T07:45:30;11.20;66.20
65046;DHT22;54657;52.022;5.534;2023-04-15T07:47:56;11.30;65.80
65046;DHT22;54657;52.022;5.534;2023-04-15T07:50:21;11.30;65.10
65046;DHT22;54657;52.022;5.534;2023-04-15T07:52:48;11.40;65.10
65046;DHT22;54657;52.022;5.534;2023-04-15T07:55:14;11.40;65.00
65046;DHT22;54657;52.022;5.534;2023-04-15T07:57:41;11.40;65.20
65046;DHT22;54657;52.022;5.534;2023-04-15T08:00:07;11.50;64.90
65046;DHT22;54657;52.022;5.534;2023-04-15T08:02:34;11.40;64.60
65046;DHT22;54657;52.022;5.534;2023-04-15T08:04:59;11.50;64.70
65046;DHT22;54657;52.022;5.534;2023-04-15T08:07:27;11.50;64.60
65046;DHT22;54657;52.022;5.534;2023-04-15T08:09:52;11.40;64.80
65046;DHT22;54657;52.022;5.534;2023-04-15T08:12:18;11.40;64.70
65046;DHT22;54657;52.022;5.534;2023-04-15T08:14:44;11.50;65.20
65046;DHT22;54657;52.022;5.534;2023-04-15T08:17:10;11.60;64.60
65046;DHT22;54657;52.022;5.534;2023-04-15T08:19:35;11.60;64.40
65046;DHT22;54657;52.022;5.534;2023-04-15T08:22:01;11.70;64.60
65046;DHT22;54657;52.022;5.534;2023-04-15T08:24:27;11.60;64.20
65046;DHT22;54657;52.022;5.534;2023-04-15T08:26:52;11.60;64.20
65046;DHT22;54657;52.022;5.534;2023-04-15T08:29:18;11.50;64.30
65046;DHT22;54657;52.022;5.534;2023-04-15T08:31:44;11.50;64.40
65046;DHT22;54657;52.022;5.534;2023-04-15T08:34:13;11.50;64.70
65046;DHT22;54657;52.022;5.534;2023-04-15T08:36:40;11.50;64.70
65046;DHT22;54657;52.022;5.534;2023-04-15T08:39:06;11.50;64.50
65046;DHT22;54657;52.022;5.534;2023-04-15T08:42:01;11.50;64.40
65046;DHT22;54657;52.022;5.534;2023-04-15T08:44:32;11.50;64.80
65046;DHT22;54657;52.022;5.534;2023-04-15T08:47:02;11.50;64.90
65046;DHT22;54657;52.022;5.534;2023-04-15T08:49:28;11.50;65.10
65046;DHT22;54657;52.022;5.534;2023-04-15T08:51:55;11.40;64.80
65046;DHT22;54657;52.022;5.534;2023-04-15T08:54:22;11.50;64.90
65046;DHT22;54657;52.022;5.534;2023-04-15T08:56:51;11.50;64.70
65046;DHT22;54657;52.022;5.534;2023-04-15T08:59:19;11.60;64.40
65046;DHT22;54657;52.022;5.534;2023-04-15T09:01:46;11.70;63.90
65046;DHT22;54657;52.022;5.534;2023-04-15T09:04:13;11.70;64.00
65046;DHT22;54657;52.022;5.534;2023-04-15T09:06:39;11.80;64.70
65046;DHT22;54657;52.022;5.534;2023-04-15T09:09:05;11.90;64.00
65046;DHT22;54657;52.022;5.534;2023-04-15T09:11:30;12.00;63.90
65046;DHT22;54657;52.022;5.534;2023-04-15T09:13:56;12.00;63.70
65046;DHT22;54657;52.022;5.534;2023-04-15T09:16:22;12.10;64.10
65046;DHT22;54657;52.022;5.534;2023-04-15T09:18:47;12.20;63.60
65046;DHT22;54657;52.022;5.534;2023-04-15T09:21:17;12.30;63.70
65046;DHT22;54657;52.022;5.534;2023-04-15T09:23:56;12.30;63.80
65046;DHT22;54657;52.022;5.534;2023-04-15T09:26:36;12.30;63.60
65046;DHT22;54657;52.022;5.534;2023-04-15T09:29:11;12.20;63.80
65046;DHT22;54657;52.022;5.534;2023-04-15T09:31:39;12.20;64.00
65046;DHT22;54657;52.022;5.534;2023-04-15T09:34:05;12.20;63.80
65046;DHT22;54657;52.022;5.534;2023-04-15T09:39:12;12.20;64.00
65046;DHT22;54657;52.022;5.534;2023-04-15T09:41:38;12.20;64.10
65046;DHT22;54657;52.022;5.534;2023-04-15T09:44:04;12.30;63.90
65046;DHT22;54657;52.022;5.534;2023-04-15T09:46:40;12.30;63.90
65046;DHT22;54657;52.022;5.534;2023-04-15T09:49:08;12.40;64.00
65046;DHT22;54657;52.022;5.534;2023-04-15T09:51:34;12.50;63.80
65046;DHT22;54657;52.022;5.534;2023-04-15T09:54:00;12.60;63.40
65046;DHT22;54657;52.022;5.534;2023-04-15T09:56:35;12.60;63.20
65046;DHT22;54657;52.022;5.534;2023-04-15T09:59:04;12.60;63.60
65046;DHT22;54657;52.022;5.534;2023-04-15T10:01:30;12.70;63.60
65046;DHT22;54657;52.022;5.534;2023-04-15T10:03:56;12.80;63.60
65046;DHT22;54657;52.022;5.534;2023-04-15T10:06:25;12.90;63.10
65046;DHT22;54657;52.022;5.534;2023-04-15T10:08:51;12.90;62.70
65046;DHT22;54657;52.022;5.534;2023-04-15T10:11:21;12.90;63.20
65046;DHT22;54657;52.022;5.534;2023-04-15T10:13:49;12.90;62.40
65046;DHT22;54657;52.022;5.534;2023-04-15T10:16:16;12.90;62.50
65046;DHT22;54657;52.022;5.534;2023-04-15T10:18:45;13.00;62.20
65046;DHT22;54657;52.022;5.534;2023-04-15T10:21:12;13.00;62.20
65046;DHT22;54657;52.022;5.534;2023-04-15T10:23:46;13.20;61.70
65046;DHT22;54657;52.022;5.534;2023-04-15T10:26:12;13.20;61.60
65046;DHT22;54657;52.022;5.534;2023-04-15T10:28:42;13.20;61.60
65046;DHT22;54657;52.022;5.534;2023-04-15T10:31:11;13.30;61.80
65046;DHT22;54657;52.022;5.534;2023-04-15T10:33:38;13.30;61.70
65046;DHT22;54657;52.022;5.534;2023-04-15T10:36:05;13.30;61.70
65046;DHT22;54657;52.022;5.534;2023-04-15T10:41:16;13.30;61.50
65046;DHT22;54657;52.022;5.534;2023-04-15T10:43:54;13.30;62.20
65046;DHT22;54657;52.022;5.534;2023-04-15T10:46:22;13.30;62.30
65046;DHT22;54657;52.022;5.534;2023-04-15T10:48:51;13.30;62.90
65046;DHT22;54657;52.022;5.534;2023-04-15T10:51:30;13.30;62.60
65046;DHT22;54657;52.022;5.534;2023-04-15T10:53:58;13.20;62.20
65046;DHT22;54657;52.022;5.534;2023-04-15T10:56:24;13.20;62.50
65046;DHT22;54657;52.022;5.534;2023-04-15T10:58:50;13.20;62.70
65046;DHT22;54657;52.022;5.534;2023-04-15T11:01:17;13.30;62.40
65046;DHT22;54657;52.022;5.534;2023-04-15T11:03:43;13.30;62.70
65046;DHT22;54657;52.022;5.534;2023-04-15T11:06:10;13.30;62.60
65046;DHT22;54657;52.022;5.534;2023-04-15T11:11:20;13.40;62.90
65046;DHT22;54657;52.022;5.534;2023-04-15T11:13:50;13.50;62.70
65046;DHT22;54657;52.022;5.534;2023-04-15T11:16:16;13.60;63.00
65046;DHT22;54657;52.022;5.534;2023-04-15T11:18:41;13.50;62.40
65046;DHT22;54657;52.022;5.534;2023-04-15T11:21:17;13.50;62.70
65046;DHT22;54657;52.022;5.534;2023-04-15T11:23:43;13.60;62.70
65046;DHT22;54657;52.022;5.534;2023-04-15T11:26:11;13.70;62.10
65046;DHT22;54657;52.022;5.534;2023-04-15T11:28:41;13.60;62.00
65046;DHT22;54657;52.022;5.534;2023-04-15T11:31:12;13.70;61.80
65046;DHT22;54657;52.022;5.534;2023-04-15T11:33:54;13.70;62.20
65046;DHT22;54657;52.022;5.534;2023-04-15T11:36:23;13.70;62.60
65046;DHT22;54657;52.022;5.534;2023-04-15T11:38:51;13.80;62.10
65046;DHT22;54657;52.022;5.534;2023-04-15T11:41:20;13.80;61.30
65046;DHT22;54657;52.022;5.534;2023-04-15T11:43:46;13.70;61.80
65046;DHT22;54657;52.022;5.534;2023-04-15T11:46:12;13.60;61.90
65046;DHT22;54657;52.022;5.534;2023-04-15T11:48:42;13.60;61.90
65046;DHT22;54657;52.022;5.534;2023-04-15T11:51:08;13.70;62.00
65046;DHT22;54657;52.022;5.534;2023-04-15T11:53:44;13.80;61.60
65046;DHT22;54657;52.022;5.534;2023-04-15T11:56:20;13.70;61.20
65046;DHT22;54657;52.022;5.534;2023-04-15T11:58:47;13.70;61.80
65046;DHT22;54657;52.022;5.534;2023-04-15T12:01:14;13.80;61.60
65046;DHT22;54657;52.022;5.534;2023-04-15T12:03:42;13.90;60.80
65046;DHT22;54657;52.022;5.534;2023-04-15T12:06:31;13.90;60.80
65046;DHT22;54657;52.022;5.534;2023-04-15T12:09:03;13.90;59.90
65046;DHT22;54657;52.022;5.534;2023-04-15T12:11:49;13.90;60.70
65046;DHT22;54657;52.022;5.534;2023-04-15T12:14:31;13.90;60.20
65046;DHT22;54657;52.022;5.534;2023-04-15T12:16:58;13.90;60.20
65046;DHT22;54657;52.022;5.534;2023-04-15T12:19:38;13.90;60.80
65046;DHT22;54657;52.022;5.534;2023-04-15T12:22:08;13.90;59.90
65046;DHT22;54657;52.022;5.534;2023-04-15T12:24:36;13.80;61.00
65046;DHT22;54657;52.022;5.534;2023-04-15T12:27:04;13.90;60.60
65046;DHT22;54657;52.022;5.534;2023-04-15T12:29:30;14.00;60.70
65046;DHT22;54657;52.022;5.534;2023-04-15T12:31:58;14.00;60.50
65046;DHT22;54657;52.022;5.534;2023-04-15T12:34:30;13.90;60.60
65046;DHT22;54657;52.022;5.534;2023-04-15T12:36:56;13.90;60.70
65046;DHT22;54657;52.022;5.534;2023-04-15T12:39:26;13.90;61.00
65046;DHT22;54657;52.022;5.534;2023-04-15T12:41:53;14.00;60.40
65046;DHT22;54657;52.022;5.534;2023-04-15T12:44:20;13.90;60.40
65046;DHT22;54657;52.022;5.534;2023-04-15T12:46:46;13.80;60.30
65046;DHT22;54657;52.022;5.534;2023-04-15T12:49:12;13.70;60.40
65046;DHT22;54657;52.022;5.534;2023-04-15T12:51:39;13.70;60.60
65046;DHT22;54657;52.022;5.534;2023-04-15T12:54:05;13.70;61.30
65046;DHT22;54657;52.022;5.534;2023-04-15T12:56:30;13.90;60.70
65046;DHT22;54657;52.022;5.534;2023-04-15T12:58:56;13.80;60.80
65046;DHT22;54657;52.022;5.534;2023-04-15T13:01:21;13.70;61.00
65046;DHT22;54657;52.022;5.534;2023-04-15T13:03:47;13.80;61.20
65046;DHT22;54657;52.022;5.534;2023-04-15T13:06:14;13.70;61.30
65046;DHT22;54657;52.022;5.534;2023-04-15T13:08:40;13.70;61.50
65046;DHT22;54657;52.022;5.534;2023-04-15T13:11:06;13.70;61.60
65046;DHT22;54657;52.022;5.534;2023-04-15T13:13:32;13.70;61.30
65046;DHT22;54657;52.022;5.534;2023-04-15T13:15:57;13.60;61.40
65046;DHT22;54657;52.022;5.534;2023-04-15T13:18:23;13.50;61.20
65046;DHT22;54657;52.022;5.534;2023-04-15T13:20:50;13.50;61.30
65046;DHT22;54657;52.022;5.534;2023-04-15T13:23:15;13.50;61.30
65046;DHT22;54657;52.022;5.534;2023-04-15T13:25:41;13.50;61.10
65046;DHT22;54657;52.022;5.534;2023-04-15T13:28:07;13.50;61.20
65046;DHT22;54657;52.022;5.534;2023-04-15T13:30:33;13.40;61.60
65046;DHT22;54657;52.022;5.534;2023-04-15T13:32:58;13.40;61.60
65046;DHT22;54657;52.022;5.534;2023-04-15T13:35:24;13.30;61.70
65046;DHT22;54657;52.022;5.534;2023-04-15T13:37:50;13.40;61.60
65046;DHT22;54657;52.022;5.534;2023-04-15T13:40:15;13.50;61.60
65046;DHT22;54657;52.022;5.534;2023-04-15T13:42:41;13.50;61.70
65046;DHT22;54657;52.022;5.534;2023-04-15T13:45:07;13.40;61.10
65046;DHT22;54657;52.022;5.534;2023-04-15T13:47:33;13.30;61.50
65046;DHT22;54657;52.022;5.534;2023-04-15T13:49:58;13.20;61.60
65046;DHT22;54657;52.022;5.534;2023-04-15T13:52:24;13.20;61.50
65046;DHT22;54657;52.022;5.534;2023-04-15T13:54:50;13.10;62.00
65046;DHT22;54657;52.022;5.534;2023-04-15T13:57:16;13.00;62.50
65046;DHT22;54657;52.022;5.534;2023-04-15T13:59:41;13.00;62.70
65046;DHT22;54657;52.022;5.534;2023-04-15T14:02:08;13.10;62.90
65046;DHT22;54657;52.022;5.534;2023-04-15T14:04:34;13.10;63.20
65046;DHT22;54657;52.022;5.534;2023-04-15T14:06:59;13.10;63.60
65046;DHT22;54657;52.022;5.534;2023-04-15T14:09:25;13.00;63.10
65046;DHT22;54657;52.022;5.534;2023-04-15T14:11:51;12.90;63.40
65046;DHT22;54657;52.022;5.534;2023-04-15T14:14:17;12.90;63.10
65046;DHT22;54657;52.022;5.534;2023-04-15T14:16:42;12.80;62.90
65046;DHT22;54657;52.022;5.534;2023-04-15T14:19:08;12.70;63.10
65046;DHT22;54657;52.022;5.534;2023-04-15T14:21:34;12.70;63.30
65046;DHT22;54657;52.022;5.534;2023-04-15T14:23:59;12.60;63.20
65046;DHT22;54657;52.022;5.534;2023-04-15T14:26:25;12.60;63.50
65046;DHT22;54657;52.022;5.534;2023-04-15T14:28:50;12.60;63.70
65046;DHT22;54657;52.022;5.534;2023-04-15T14:31:17;12.50;63.90
65046;DHT22;54657;52.022;5.534;2023-04-15T14:33:43;12.50;63.80
65046;DHT22;54657;52.022;5.534;2023-04-15T14:36:09;12.40;63.90
65046;DHT22;54657;52.022;5.534;2023-04-15T14:38:35;12.30;63.80
65046;DHT22;54657;52.022;5.534;2023-04-15T14:41:05;12.30;64.30
65046;DHT22;54657;52.022;5.534;2023-04-15T14:43:31;12.20;64.30
65046;DHT22;54657;52.022;5.534;2023-04-15T14:45:57;12.20;64.30
65046;DHT22;54657;52.022;5.534;2023-04-15T14:48:23;12.20;64.90
65046;DHT22;54657;52.022;5.534;2023-04-15T14:50:48;12.20;64.70
65046;DHT22;54657;52.022;5.534;2023-04-15T14:53:14;12.10;65.20
65046;DHT22;54657;52.022;5.534;2023-04-15T14:55:39;12.00;65.40
65046;DHT22;54657;52.022;5.534;2023-04-15T14:58:06;11.80;66.60
65046;DHT22;54657;52.022;5.534;2023-04-15T15:00:33;11.80;66.60
65046;DHT22;54657;52.022;5.534;2023-04-15T15:02:59;11.80;67.30
65046;DHT22;54657;52.022;5.534;2023-04-15T15:05:26;11.70;67.40
65046;DHT22;54657;52.022;5.534;2023-04-15T15:07:51;11.70;67.90
65046;DHT22;54657;52.022;5.534;2023-04-15T15:10:17;11.60;67.70
65046;DHT22;54657;52.022;5.534;2023-04-15T15:12:43;11.60;68.50
65046;DHT22;54657;52.022;5.534;2023-04-15T15:15:08;11.50;67.70
65046;DHT22;54657;52.022;5.534;2023-04-15T15:17:34;11.50;67.30
65046;DHT22;54657;52.022;5.534;2023-04-15T15:20:00;11.50;67.60
65046;DHT22;54657;52.022;5.534;2023-04-15T15:22:27;11.50;67.40
65046;DHT22;54657;52.022;5.534;2023-04-15T15:24:53;11.40;68.00
65046;DHT22;54657;52.022;5.534;2023-04-15T15:27:19;11.30;68.10
65046;DHT22;54657;52.022;5.534;2023-04-15T15:29:44;11.40;68.70
65046;DHT22;54657;52.022;5.534;2023-04-15T15:32:10;11.30;68.20
65046;DHT22;54657;52.022;5.534;2023-04-15T15:34:36;11.30;68.30
65046;DHT22;54657;52.022;5.534;2023-04-15T15:37:01;11.30;68.60
65046;DHT22;54657;52.022;5.534;2023-04-15T15:39:27;11.30;68.50
65046;DHT22;54657;52.022;5.534;2023-04-15T15:41:53;11.40;68.10